Terminal Aerodrome Forecast
Issued by NWS

Current Version | Previous Version | Graphics & Text | Print | Product List | Glossary On
Versions: 1 2 3 4 5 6 7 8 9 10 11 12 13 14 15 16 17 18 19 20
000
FTUS41 KPBZ 310100 AAA
TAFMGW
TAF AMD
KMGW 310102Z 3101/3124 VRB05KT P6SM BKN060
      TEMPO 3101/3103 BKN030
     FM310500 VRB05KT P6SM SCT060
      TEMPO 3109/3113 2SM BR
     FM311500 27012KT P6SM SCT060
     FM312300 VRB05KT P6SM SKC=

USA.gov is the U.S. government's official web portal to all federal, state and local government web resources and services.